Apiai, Brazil
Current Conditions -  °F | °C
As of 1:00 PM on Friday 28 Nov 2014 (Local Time) from SBBI Reporting Station
Broken Clouds Broken Clouds  
Wind Chill: 72°   Ceiling: 2500
Heat Index: 72°   Visibility: 6mi
Dew Point: 59°   Wind: 5mph
Humidity: 64%   Direction: 100°E
Pressure: 30.15"   Gusts: NA
Location:  24.51°S, 48.84°W
Report Text: SBBI 281500Z 10004KT 9999 BKN025 22/15 Q1021
Loading
Personal Weather Stations






























Interactive Weather Map New forecast layout! Learn more

10-Day Weather Forecast

Advertisements
Track Severe Weather on mobile